Time;durP1;ratioP1;P1;durP2;ratioP2;P2;SDS_P1;SDS_P2;PMS_P1;PMS_P2;Temp;Humidity;BMP_temperature;BMP_pressure;BME280_temperature;BME280_humidity;BME280_pressure;Samples;Min_cycle;Max_cycle;Signal;HPM_P1;HPM_P2
2022/09/15 00:07:51;;;;;;;4.32;1.50;;;;;;;14.78;90.10;100244.88;20614616;28;19922;-67
2022/09/15 00:18:37;;;;;;;9.20;1.52;;;;;;;14.77;90.32;100243.22;20601937;28;20093;-66
2022/09/15 00:29:14;;;;;;;6.83;1.33;;;;;;;14.71;90.90;100235.91;20603079;28;20046;-66
2022/09/15 00:40:38;;;;;;;4.80;1.33;;;;;;;14.82;91.02;100241.03;20611820;28;20294;-67
2022/09/15 00:52:10;;;;;;;6.50;1.40;;;;;;;14.87;91.65;100248.47;20607103;28;20055;-67
2022/09/15 01:02:49;;;;;;;5.38;1.65;;;;;;;14.94;91.40;100260.88;20518352;28;20086;-67
2022/09/15 01:13:45;;;;;;;4.03;1.40;;;;;;;14.84;91.92;100260.09;20522529;28;20043;-67
2022/09/15 01:25:01;;;;;;;8.43;1.50;;;;;;;14.79;92.89;100267.53;20601642;28;20057;-67
2022/09/15 01:36:01;;;;;;;3.80;1.60;;;;;;;14.63;94.64;100264.63;20599259;28;20133;-68
2022/09/15 01:46:57;;;;;;;5.65;2.05;;;;;;;14.45;98.42;100254.97;20614285;28;20078;-66
2022/09/15 01:58:03;;;;;;;3.38;2.00;;;;;;;14.41;100.00;100268.50;20622126;28;20050;-67
2022/09/15 02:09:26;;;;;;;5.65;2.42;;;;;;;14.49;100.00;100244.06;20619395;28;20065;-67
2022/09/15 02:20:24;;;;;;;3.38;1.95;;;;;;;14.61;100.00;100257.88;20629898;28;20470;-67
2022/09/15 02:31:12;;;;;;;4.40;2.03;;;;;;;14.46;100.00;100264.50;20627052;28;20058;-66
2022/09/15 02:41:52;;;;;;;6.38;2.00;;;;;;;14.59;100.00;100260.63;20630521;28;20043;-67
2022/09/15 02:53:00;;;;;;;5.75;2.30;;;;;;;14.54;100.00;100270.72;20608815;28;20053;-67
2022/09/15 03:04:12;;;;;;;7.15;1.88;;;;;;;14.63;100.00;100272.50;20618783;28;20058;-66
2022/09/15 03:14:50;;;;;;;6.13;2.55;;;;;;;14.56;100.00;100271.38;20605579;28;20040;-66
2022/09/15 03:26:21;;;;;;;6.10;1.90;;;;;;;14.57;100.00;100273.03;20611589;28;20463;-67
2022/09/15 03:37:51;;;;;;;11.25;2.38;;;;;;;14.57;100.00;100286.16;20603590;28;20519;-66
2022/09/15 03:48:48;;;;;;;6.00;1.83;;;;;;;14.53;100.00;100269.06;20600257;28;20047;-66
2022/09/15 03:59:52;;;;;;;5.97;1.70;;;;;;;14.62;100.00;100270.84;20596703;28;20050;-66
2022/09/15 04:10:53;;;;;;;8.23;1.70;;;;;;;14.56;100.00;100271.38;20609592;28;20510;-66
2022/09/15 04:21:44;;;;;;;10.70;1.90;;;;;;;14.54;100.00;100278.59;20614708;28;20656;-67
2022/09/15 04:32:54;;;;;;;3.55;1.45;;;;;;;14.62;100.00;100268.22;20631746;28;20058;-65
2022/09/15 04:43:35;;;;;;;;;;;;;;;14.70;100.00;100255.22;20617040;28;20153;-64
2022/09/15 04:54:18;;;;;;;;;;;;;;;14.67;100.00;100263.41;20610768;28;20436;-67
2022/09/15 05:04:55;;;;;;;;;;;;;;;14.67;100.00;100268.66;20606700;28;19933;-67
2022/09/15 05:15:27;;;;;;;;;;;;;;;14.65;100.00;100270.56;20603423;28;19925;-66
2022/09/15 05:26:08;;;;;;;;;;;;;;;14.53;100.00;100281.31;20657448;28;19928;-67
2022/09/15 05:36:59;;;;;;;;;;;;;;;14.63;100.00;100262.00;20622284;28;19933;-67
2022/09/15 05:47:57;;;;;;;;;;;;;;;14.60;100.00;100274.59;20616496;28;19972;-68
2022/09/15 05:58:25;;;;;;;;;;;;;;;14.70;100.00;100278.84;20616145;28;19922;-68
2022/09/15 06:09:20;;;;;;;;;;;;;;;14.76;100.00;100283.53;20621294;28;19918;-68
2022/09/15 06:19:56;;;;;;;;;;;;;;;14.83;99.72;100284.66;20618604;28;20315;-64
2022/09/15 06:30:48;;;;;;;;;;;;;;;14.89;99.52;100285.91;20613156;28;20578;-65
2022/09/15 06:42:00;;;;;;;;;;;;;;;15.01;96.32;100277.72;20627176;28;20017;-65
2022/09/15 06:52:34;;;;;;;;;;;;;;;15.17;93.44;100288.47;21460026;23;20392;-65
2022/09/15 07:02:56;;;;;;;;;;;;;;;15.13;92.19;100289.75;20723423;28;19932;-65
2022/09/15 07:13:18;;;;;;;;;;;;;;;15.43;89.32;100300.06;20681261;28;19928;-66
2022/09/15 07:23:39;;;;;;;;;;;;;;;15.58;86.68;100296.84;20687778;28;19964;-65
2022/09/15 07:34:01;;;;;;;;;;;;;;;15.79;84.65;100304.50;20737553;28;19975;-62
2022/09/15 07:44:22;;;;;;;;;;;;;;;15.83;82.89;100321.66;20691411;28;19921;-63
2022/09/15 07:54:44;;;;;;;;;;;;;;;15.95;82.02;100320.50;20689937;28;20044;-63
2022/09/15 08:05:05;;;;;;;;;;;;;;;16.34;79.01;100319.34;20683864;28;19926;-63
2022/09/15 08:15:27;;;;;;;;;;;;;;;16.52;76.04;100344.72;20674846;28;19957;-63
2022/09/15 08:25:50;;;;;;;;;;;;;;;16.51;76.58;100349.16;20678626;28;19926;-66
2022/09/15 08:36:12;;;;;;;;;;;;;;;16.72;77.09;100357.63;20675261;28;20017;-65
2022/09/15 08:46:38;;;;;;;;;;;;;;;16.67;78.17;100359.88;20687536;28;19979;-63
2022/09/15 08:57:00;;;;;;;;;;;;;;;17.02;78.17;100375.69;20694501;28;19948;-63
2022/09/15 09:07:21;;;;;;;;;;;;;;;17.48;75.58;100370.16;20708706;28;20355;-64
2022/09/15 09:18:01;;;;;;;;;;;;;;;17.30;74.19;100390.47;20690321;28;19925;-63
2022/09/15 09:28:42;;;;;;;;;;;;;;;16.71;79.36;100413.03;20717242;28;19925;-63
2022/09/15 09:39:04;;;;;;;;;;;;;;;15.74;91.29;100393.47;20702568;28;19988;-65
2022/09/15 09:49:29;;;;;;;;;;;;;;;15.95;87.94;100383.59;20715254;28;20061;-64
2022/09/15 09:59:51;;;;;;;;;;;;;;;16.35;86.02;100373.63;20673870;28;19922;-64
2022/09/15 10:10:23;;;;;;;;;;;;;;;16.65;85.30;100372.34;20706886;28;20008;-64
2022/09/15 10:20:48;;;;;;;;;;;;;;;17.02;82.70;100375.69;20691680;28;19932;-64
2022/09/15 10:31:12;;;;;;;;;;;;;;;17.43;75.74;100375.09;20711209;28;19922;-65
2022/09/15 10:41:38;;;;;;;;;;;;;;;17.74;71.05;100368.41;20715524;28;19933;-64
2022/09/15 10:52:19;;;;;;;;;;;;;;;17.68;70.08;100364.53;20688262;28;20382;-64
2022/09/15 11:03:00;;;;;;;;;;;;;;;18.14;67.49;100361.50;20707732;28;19921;-63
2022/09/15 11:13:46;;;;;;;;;;;;;;;18.40;65.45;100368.41;20681837;28;19984;-65
2022/09/15 11:24:16;;;;;;;2.88;0.40;;;;;;;18.54;64.50;100369.63;20690268;28;19941;-65
2022/09/15 11:34:41;;;;;;;;;;;;;;;18.60;60.58;100359.25;20693488;28;19925;-65
2022/09/15 11:45:05;;;;;;;7.00;0.80;;;;;;;18.82;59.76;100363.91;20684257;28;19922;-65
2022/09/15 11:55:50;;;;;;;1.52;0.50;;;;;;;18.61;58.76;100366.19;20841739;28;20041;-65
2022/09/15 12:06:25;;;;;;;3.13;0.50;;;;;;;19.28;56.73;100368.63;20823537;28;20108;-65
2022/09/15 12:16:47;;;;;;;2.53;0.55;;;;;;;19.23;56.00;100368.28;20841859;28;20272;-67
2022/09/15 12:27:19;;;;;;;0.95;0.35;;;;;;;19.19;54.38;100366.13;20832002;28;20481;-66
2022/09/15 12:37:44;;;;;;;2.85;0.57;;;;;;;18.43;66.40;100399.78;20818912;28;20049;-68
2022/09/15 12:48:11;;;;;;;2.60;0.85;;;;;;;16.91;83.14;100410.13;20834992;28;20051;-68
2022/09/15 12:58:50;;;;;;;3.00;0.70;;;;;;;16.97;82.33;100412.19;20838131;28;20038;-68
2022/09/15 13:09:26;;;;;;;3.78;1.13;;;;;;;17.31;80.91;100410.56;20843178;28;20527;-69
2022/09/15 13:19:58;;;;;;;6.18;1.10;;;;;;;17.58;79.11;100415.72;20849755;28;20758;-66
2022/09/15 13:30:20;;;;;;;6.25;1.20;;;;;;;16.75;94.16;100440.72;20851136;28;20103;-66
2022/09/15 13:41:17;;;;;;;7.38;1.50;;;;;;;16.16;97.88;100429.75;20833192;28;20053;-65
2022/09/15 13:51:43;;;;;;;2.40;0.70;;;;;;;15.88;100.00;100427.19;20859714;28;20075;-66
2022/09/15 14:02:07;;;;;;;2.92;0.95;;;;;;;15.82;100.00;100418.06;20848907;28;20041;-68
2022/09/15 14:12:29;;;;;;;2.85;0.80;;;;;;;16.31;99.56;100414.34;20877001;28;20045;-68
2022/09/15 14:22:50;;;;;;;3.53;0.80;;;;;;;16.19;93.33;100400.53;20897447;28;20098;-68
2022/09/15 14:33:15;;;;;;;4.05;0.77;;;;;;;16.48;90.95;100404.72;20860986;28;20500;-67
2022/09/15 14:43:40;;;;;;;4.80;0.90;;;;;;;16.47;87.63;100410.94;20854515;28;20053;-68
2022/09/15 14:54:04;;;;;;;6.38;0.95;;;;;;;16.16;91.95;100436.78;20840344;28;20133;-68
2022/09/15 15:04:35;;;;;;;3.20;0.57;;;;;;;15.38;85.99;100441.53;20841433;28;20041;-69
2022/09/15 15:14:59;;;;;;;5.03;0.77;;;;;;;15.29;91.02;100423.94;20848748;28;20044;-68
2022/09/15 15:25:20;;;;;;;3.55;0.90;;;;;;;15.21;97.85;100412.47;20852555;28;20041;-68
2022/09/15 15:35:42;;;;;;;;;;;;;;;15.16;100.00;100418.09;20829096;28;20052;-68
2022/09/15 15:46:04;;;;;;;;;;;;;;;15.05;100.00;100428.75;20859460;28;20043;-67
2022/09/15 15:56:26;;;;;;;3.67;0.88;;;;;;;15.03;100.00;100425.44;20863533;28;19925;-68
2022/09/15 16:06:47;;;;;;;;;;;;;;;15.41;97.45;100424.63;20821380;28;20500;-67
2022/09/15 16:17:09;;;;;;;3.77;0.70;;;;;;;15.37;93.79;100426.72;20843763;28;19943;-67
2022/09/15 16:27:31;;;;;;;5.80;0.70;;;;;;;15.46;91.37;100436.38;20848137;28;20072;-68
2022/09/15 16:37:52;;;;;;;;;;;;;;;15.22;90.93;100442.97;20830755;28;20049;-68
2022/09/15 16:48:14;;;;;;;4.37;0.63;;;;;;;14.92;93.85;100446.56;20822978;28;20308;-67
2022/09/15 16:58:36;;;;;;;3.63;0.70;;;;;;;14.88;95.71;100471.41;20823290;28;20103;-68
2022/09/15 17:08:57;;;;;;;2.63;0.80;;;;;;;14.80;94.93;100463.38;20846331;28;20448;-69
2022/09/15 17:19:19;;;;;;;6.95;1.00;;;;;;;14.56;97.82;100473.38;20837070;28;20049;-68
2022/09/15 17:29:40;;;;;;;5.82;1.00;;;;;;;14.54;96.03;100462.22;20836353;28;20045;-68
2022/09/15 17:40:02;;;;;;;4.28;0.75;;;;;;;14.41;97.07;100460.75;20803254;28;20042;-67
2022/09/15 17:50:26;;;;;;;5.22;1.02;;;;;;;14.32;96.41;100473.84;20863412;28;20049;-67
2022/09/15 18:00:49;;;;;;;4.97;0.90;;;;;;;14.29;95.68;100471.47;20840862;28;20045;-67
2022/09/15 18:11:13;;;;;;;2.85;1.17;;;;;;;14.42;95.79;100461.56;20828261;28;20091;-67
2022/09/15 18:21:34;;;;;;;8.60;1.35;;;;;;;14.33;96.96;100463.22;20823219;28;20110;-67
2022/09/15 18:31:58;;;;;;;6.65;1.17;;;;;;;14.22;97.71;100468.53;20881988;28;20176;-67
2022/09/15 18:42:19;;;;;;;3.30;0.85;;;;;;;14.31;98.01;100480.03;20849138;28;20046;-67
2022/09/15 18:52:41;;;;;;;4.90;0.90;;;;;;;14.32;96.34;100476.44;20844825;28;20619;-68
2022/09/15 19:03:04;;;;;;;;;;;;;;;14.18;99.18;100474.16;20925889;28;20573;-67
2022/09/15 19:13:27;;;;;;;4.30;1.35;;;;;;;14.12;99.42;100479.88;20931859;28;19928;-67
2022/09/15 19:23:49;;;;;;;10.73;1.30;;;;;;;14.09;98.59;100469.69;20932448;28;20056;-67
2022/09/15 19:34:10;;;;;;;5.65;1.08;;;;;;;14.02;98.04;100471.16;20949147;28;20076;-67
2022/09/15 19:44:32;;;;;;;6.00;1.00;;;;;;;13.85;99.08;100484.84;20955949;28;20090;-68
2022/09/15 19:54:54;;;;;;;6.53;1.23;;;;;;;14.02;98.35;100479.00;20950045;28;20127;-67
2022/09/15 20:05:16;;;;;;;3.55;1.10;;;;;;;13.83;100.00;100473.63;20933752;28;20040;-68
2022/09/15 20:15:37;;;;;;;4.18;1.27;;;;;;;13.46;100.00;100489.94;20932398;28;20114;-68
2022/09/15 20:26:03;;;;;;;2.10;0.68;;;;;;;13.55;99.47;100497.84;20957301;28;20049;-68
2022/09/15 20:36:37;;;;;;;4.60;1.02;;;;;;;13.27;99.44;100495.81;20959876;28;20048;-68
2022/09/15 20:47:04;;;;;;;6.25;1.10;;;;;;;13.21;98.19;100505.94;20942968;28;20078;-67
2022/09/15 20:57:33;;;;;;;2.47;0.70;;;;;;;13.12;97.61;100510.13;20951891;28;20408;-67
2022/09/15 21:08:02;;;;;;;3.55;0.80;;;;;;;12.98;98.66;100526.09;20904168;28;20041;-67
2022/09/15 21:18:25;;;;;;;;;;;;;;;12.97;98.72;100518.38;20910249;28;20492;-67
2022/09/15 21:28:47;;;;;;;4.18;0.90;;;;;;;13.05;98.71;100516.81;20929907;28;19924;-67
2022/09/15 21:39:09;;;;;;;3.35;0.85;;;;;;;12.96;99.32;100512.28;20916312;28;20041;-67
2022/09/15 21:49:31;;;;;;;4.27;1.00;;;;;;;12.80;100.00;100524.06;20918235;28;20057;-67
2022/09/15 21:59:52;;;;;;;3.75;0.80;;;;;;;12.93;100.00;100516.94;20919437;28;20286;-68
2022/09/15 22:10:14;;;;;;;4.40;1.20;;;;;;;12.84;100.00;100522.88;20982928;28;20507;-68
2022/09/15 22:20:35;;;;;;;7.05;1.10;;;;;;;12.85;100.00;100532.41;20931462;28;20052;-67
2022/09/15 22:31:02;;;;;;;4.67;0.80;;;;;;;12.81;100.00;100528.34;20914196;28;20063;-68
2022/09/15 22:41:26;;;;;;;5.13;1.17;;;;;;;12.84;100.00;100523.69;20937522;28;20279;-68
2022/09/15 22:51:47;;;;;;;5.97;1.08;;;;;;;12.67;100.00;100521.56;20938602;28;20071;-68
2022/09/15 23:02:09;;;;;;;3.77;0.63;;;;;;;12.58;100.00;100516.25;20927016;28;20103;-69
2022/09/15 23:12:31;;;;;;;2.72;1.02;;;;;;;12.56;100.00;100513.72;20938151;28;20075;-68
2022/09/15 23:22:52;;;;;;;7.07;0.98;;;;;;;12.44;100.00;100505.19;20933668;28;20076;-68
2022/09/15 23:33:14;;;;;;;1.67;0.60;;;;;;;12.48;100.00;100498.75;20935090;28;20087;-67
2022/09/15 23:43:35;;;;;;;4.90;1.03;;;;;;;12.15;100.00;100503.97;20915501;28;20358;-67
2022/09/15 23:53:57;;;;;;;4.68;0.70;;;;;;;12.17;100.00;100515.13;20923604;28;20098;-67
